Time;durP1;ratioP1;P1;durP2;ratioP2;P2;SDS_P1;SDS_P2;PMS_P1;PMS_P2;Temp;Humidity;BMP_temperature;BMP_pressure;BME280_temperature;BME280_humidity;BME280_pressure;Samples;Min_cycle;Max_cycle;Signal;HPM_P1;HPM_P2
2022/07/05 00:02:17;0.00;0.00;0.62;0.00;0.00;0.62;;;;;23.00;1.00;;;;;;2272584;61;941;-84
2022/07/05 00:04:45;0.00;0.00;0.62;0.00;0.00;0.62;;;;;23.20;1.00;;;;;;2272582;61;1118;-86
2022/07/05 00:07:18;309087.00;1.03;533.54;20177.00;0.07;35.58;;;;;23.40;1.00;;;;;;2272582;61;1019;-85
2022/07/05 00:09:46;0.00;0.00;0.62;0.00;0.00;0.62;;;;;23.50;1.00;;;;;;2272552;61;1924;-85
2022/07/05 00:12:13;0.00;0.00;0.62;0.00;0.00;0.62;;;;;23.50;1.00;;;;;;2272524;61;1590;-85
2022/07/05 00:14:41;57222.00;0.19;99.67;0.00;0.00;0.62;;;;;23.40;1.00;;;;;;2272533;61;1090;-85
2022/07/05 00:17:08;74579.00;0.25;129.67;0.00;0.00;0.62;;;;;23.60;1.00;;;;;;2272495;61;2351;-86
2022/07/05 00:19:35;0.00;0.00;0.62;0.00;0.00;0.62;;;;;23.50;1.00;;;;;;2272470;61;1268;-85
2022/07/05 00:22:04;14671.00;0.05;26.04;0.00;0.00;0.62;;;;;23.10;1.00;;;;;;2272544;61;1064;-85
2022/07/05 00:24:31;44826.00;0.15;78.24;0.00;0.00;0.62;;;;;22.70;1.00;;;;;;2272522;61;999;-86
2022/07/05 00:26:58;51321.00;0.17;89.47;0.00;0.00;0.62;;;;;22.30;1.00;;;;;;2272479;61;1107;-85
2022/07/05 00:29:26;0.00;0.00;0.62;0.00;0.00;0.62;;;;;22.00;1.00;;;;;;2272413;61;1988;-84
2022/07/05 00:31:53;0.00;0.00;0.62;0.00;0.00;0.62;;;;;21.90;1.00;;;;;;2272423;61;1041;-85
2022/07/05 00:34:20;0.00;0.00;0.62;0.00;0.00;0.62;;;;;22.10;1.00;;;;;;2272426;61;1101;-86
2022/07/05 00:36:47;61152.00;0.20;106.47;0.00;0.00;0.62;;;;;22.40;1.00;;;;;;2272362;61;1655;-86
2022/07/05 00:39:16;0.00;0.00;0.62;0.00;0.00;0.62;;;;;22.80;1.00;;;;;;2272392;61;1308;-85
2022/07/05 00:41:42;0.00;0.00;0.62;0.00;0.00;0.62;;;;;22.90;1.00;;;;;;2272444;61;1092;-85
2022/07/05 00:44:13;0.00;0.00;0.62;0.00;0.00;0.62;;;;;22.80;1.00;;;;;;2272451;61;1070;-85
2022/07/05 00:46:40;232877.00;0.78;402.50;41540.00;0.14;72.55;;;;;22.70;1.00;;;;;;2272416;61;1627;-86
2022/07/05 00:49:08;122649.00;0.41;212.65;0.00;0.00;0.62;;;;;22.80;1.00;;;;;;2272323;61;1992;-85
2022/07/05 00:51:37;22551.00;0.08;39.69;0.00;0.00;0.62;;;;;23.00;1.00;;;;;;2272423;61;1076;-85
2022/07/05 00:54:07;43474.00;0.14;75.90;0.00;0.00;0.62;;;;;23.10;1.00;;;;;;2272410;61;1064;-84
2022/07/05 00:56:36;24447.00;0.08;42.97;0.00;0.00;0.62;;;;;22.70;1.00;;;;;;2272409;61;983;-84
2022/07/05 00:59:03;0.00;0.00;0.62;0.00;0.00;0.62;;;;;22.40;1.00;;;;;;2272377;61;1390;-85
2022/07/05 01:01:30;220796.00;0.74;381.71;7092.00;0.02;12.91;;;;;22.20;1.00;;;;;;2272432;61;1124;-86
2022/07/05 01:03:57;36859.00;0.12;64.45;0.00;0.00;0.62;;;;;21.90;1.00;;;;;;2272393;61;1134;-85
2022/07/05 01:06:24;41197.00;0.14;71.96;0.00;0.00;0.62;;;;;21.80;1.00;;;;;;2272247;61;1899;-86
2022/07/05 01:08:52;78981.00;0.26;137.28;10788.00;0.04;19.31;;;;;22.00;1.00;;;;;;2272344;61;1992;-86
2022/07/05 01:11:18;120908.00;0.40;209.65;0.00;0.00;0.62;;;;;21.60;1.00;;;;;;2272340;61;1138;-86
2022/07/05 01:13:47;163727.00;0.55;283.46;0.00;0.00;0.62;;;;;21.70;1.00;;;;;;2272835;61;927;-87
2022/07/05 01:16:14;58499.00;0.19;101.88;0.00;0.00;0.62;;;;;21.80;1.00;;;;;;2273075;61;1035;-86
2022/07/05 01:18:41;247301.00;0.82;427.31;88960.00;0.30;154.51;;;;;21.90;1.00;;;;;;2273094;61;1054;-86
2022/07/05 01:21:08;75540.00;0.25;131.33;0.00;0.00;0.62;;;;;22.10;1.00;;;;;;2273011;61;1459;-86
2022/07/05 01:23:37;83348.00;0.28;144.82;0.00;0.00;0.62;;;;;21.90;1.00;;;;;;2273085;61;1071;-85
2022/07/05 01:26:04;77218.00;0.26;134.23;10071.00;0.03;18.07;;;;;22.00;1.00;;;;;;2273049;61;1097;-85
2022/07/05 01:28:31;5098.00;0.02;9.46;0.00;0.00;0.62;;;;;22.20;1.00;;;;;;2272991;61;1922;-85
2022/07/05 01:31:02;29714.00;0.10;52.09;0.00;0.00;0.62;;;;;22.50;1.00;;;;;;2273019;61;1272;-86
2022/07/05 01:33:29;83336.00;0.28;144.80;0.00;0.00;0.62;;;;;22.70;1.00;;;;;;2273076;61;1043;-85
2022/07/05 01:35:56;0.00;0.00;0.62;0.00;0.00;0.62;;;;;22.60;1.00;;;;;;2273008;61;1107;-86
2022/07/05 01:38:25;0.00;0.00;0.62;0.00;0.00;0.62;;;;;22.40;1.00;;;;;;2272984;61;1113;-85
2022/07/05 01:40:53;164634.00;0.55;285.02;39626.00;0.13;69.24;;;;;21.90;1.00;;;;;;2272948;61;1395;-86
2022/07/05 01:43:20;11913.00;0.04;21.26;0.00;0.00;0.62;;;;;21.70;1.00;;;;;;2273034;61;1037;-85
2022/07/05 01:45:48;0.00;0.00;0.62;0.00;0.00;0.62;;;;;21.60;1.00;;;;;;2272983;61;1110;-86
2022/07/05 01:48:17;0.00;0.00;0.62;0.00;0.00;0.62;;;;;21.80;1.00;;;;;;2272978;61;1087;-86
2022/07/05 01:50:49;0.00;0.00;0.62;0.00;0.00;0.62;;;;;21.60;1.00;;;;;;2272929;61;2010;-85
2022/07/05 01:53:19;1361.00;0.00;2.98;0.00;0.00;0.62;;;;;21.90;1.00;;;;;;2272968;61;1156;-87
2022/07/05 01:55:46;21489.00;0.07;37.85;0.00;0.00;0.62;;;;;22.30;1.00;;;;;;2272939;61;1140;-86
2022/07/05 01:58:14;0.00;0.00;0.62;0.00;0.00;0.62;;;;;22.20;1.00;;;;;;2272979;61;1079;-86
2022/07/05 02:00:46;191986.00;0.64;332.13;59482.00;0.20;103.58;;;;;22.10;1.00;;;;;;2272897;61;1284;-85
2022/07/05 02:03:13;55435.00;0.18;96.58;0.00;0.00;0.62;;;;;22.00;1.00;;;;;;2272928;61;1131;-85
2022/07/05 02:05:41;8867.00;0.03;15.99;0.00;0.00;0.62;;;;;22.00;1.00;;;;;;2272904;61;1177;-87
2022/07/05 02:08:08;110776.00;0.37;192.17;0.00;0.00;0.62;;;;;22.30;1.00;;;;;;2272984;61;1047;-86
2022/07/05 02:10:35;45126.00;0.15;78.76;0.00;0.00;0.62;;;;;22.60;1.00;;;;;;2272830;61;1939;-86
2022/07/05 02:13:03;147159.00;0.49;254.91;20663.00;0.07;36.42;;;;;22.60;1.00;;;;;;2272887;61;993;-85
2022/07/05 02:15:33;179272.00;0.60;310.24;0.00;0.00;0.62;;;;;22.20;1.00;;;;;;2272899;61;1177;-87
2022/07/05 02:17:59;131237.00;0.44;227.46;0.00;0.00;0.62;;;;;21.90;1.00;;;;;;2272923;61;1109;-86
2022/07/05 02:20:27;125550.00;0.42;217.66;0.00;0.00;0.62;;;;;21.60;1.00;;;;;;2272876;61;1302;-86
2022/07/05 02:22:54;161061.00;0.54;278.87;0.00;0.00;0.62;;;;;21.30;1.00;;;;;;2272853;61;1038;-86
2022/07/05 02:25:21;64567.00;0.22;112.37;0.00;0.00;0.62;;;;;21.30;1.00;;;;;;2272610;61;1059;-86
2022/07/05 02:27:48;127889.00;0.43;221.69;0.00;0.00;0.62;;;;;21.40;1.00;;;;;;2272929;61;1132;-85
2022/07/05 02:30:16;122945.00;0.41;213.16;0.00;0.00;0.62;;;;;21.90;1.00;;;;;;2272735;61;1908;-86
2022/07/05 02:32:44;43953.00;0.15;76.73;0.00;0.00;0.62;;;;;22.10;1.00;;;;;;2272875;61;1050;-86
2022/07/05 02:35:12;96001.00;0.32;166.67;0.00;0.00;0.62;;;;;22.10;1.00;;;;;;2272863;61;1121;-87
2022/07/05 02:37:40;218745.00;0.73;378.18;14723.00;0.05;26.13;;;;;22.00;1.00;;;;;;2272909;61;1079;-86
2022/07/05 02:40:08;195423.00;0.65;338.04;0.00;0.00;0.62;;;;;21.80;1.00;;;;;;2272749;61;1377;-87
2022/07/05 02:42:35;44404.00;0.15;77.51;0.00;0.00;0.62;;;;;21.60;1.00;;;;;;2272780;61;1030;-85
2022/07/05 02:45:02;178199.00;0.59;308.39;0.00;0.00;0.62;;;;;21.50;1.00;;;;;;2272784;61;1726;-85
2022/07/05 02:47:31;48625.00;0.16;84.81;0.00;0.00;0.62;;;;;22.00;1.00;;;;;;2272829;61;1142;-85
2022/07/05 02:49:59;89686.00;0.30;155.77;0.00;0.00;0.62;;;;;22.20;1.00;;;;;;2272756;61;1998;-85
2022/07/05 02:52:26;250026.00;0.83;432.00;89295.00;0.30;155.09;;;;;22.20;1.00;;;;;;2272848;61;962;-84
2022/07/05 02:54:53;123705.00;0.41;214.47;0.00;0.00;0.62;;;;;22.30;1.00;;;;;;2272833;61;1135;-85
2022/07/05 02:57:20;116945.00;0.39;202.81;0.00;0.00;0.62;;;;;22.50;1.00;;;;;;2272773;61;1095;-85
2022/07/05 02:59:47;135213.00;0.45;234.32;0.00;0.00;0.62;;;;;22.50;1.00;;;;;;2272748;61;1394;-86
2022/07/05 03:02:14;19593.00;0.07;34.57;0.00;0.00;0.62;;;;;22.30;1.00;;;;;;2272734;61;1051;-86
2022/07/05 03:04:40;151672.00;0.51;262.69;0.00;0.00;0.62;;;;;22.30;1.00;;;;;;2272791;61;1095;-84
2022/07/05 03:07:09;189754.00;0.63;328.29;53795.00;0.18;93.75;;;;;22.20;1.00;;;;;;2272742;61;1055;-85
2022/07/05 03:09:35;134633.00;0.45;233.32;0.00;0.00;0.62;;;;;22.40;1.00;;;;;;2272656;61;2002;-86
2022/07/05 03:12:02;152182.00;0.51;263.57;0.00;0.00;0.62;;;;;22.40;1.00;;;;;;2272404;61;1096;-85
2022/07/05 03:14:29;185171.00;0.62;320.39;0.00;0.00;0.62;;;;;22.60;1.00;;;;;;2272708;61;1078;-85
2022/07/05 03:16:56;140417.00;0.47;243.29;0.00;0.00;0.62;;;;;22.60;1.00;;;;;;2272736;61;1105;-84
2022/07/05 03:19:23;94168.00;0.31;163.50;0.00;0.00;0.62;;;;;22.40;1.00;;;;;;2272668;61;1395;-84
2022/07/05 03:21:50;96766.00;0.32;167.99;0.00;0.00;0.62;;;;;22.40;1.00;;;;;;2272707;61;1083;-85
2022/07/05 03:24:18;43562.00;0.15;76.05;0.00;0.00;0.62;;;;;22.40;1.00;;;;;;2272710;61;1123;-86
2022/07/05 03:26:45;411045.00;1.37;708.79;115745.00;0.39;200.74;;;;;22.50;1.00;;;;;;2272697;61;1078;-88
2022/07/05 03:29:12;301720.00;1.01;520.88;26871.00;0.09;47.17;;;;;22.10;1.00;;;;;;2272588;61;1998;-86
2022/07/05 03:31:39;94234.00;0.31;163.62;0.00;0.00;0.62;;;;;21.70;1.00;;;;;;2272687;61;1089;-85
2022/07/05 03:34:05;156015.00;0.52;270.17;0.00;0.00;0.62;;;;;21.50;1.00;;;;;;2272628;61;1023;-85
2022/07/05 03:36:32;321150.00;1.07;554.27;61568.00;0.21;107.19;;;;;21.40;1.00;;;;;;2272513;61;1084;-85
2022/07/05 03:38:59;212620.00;0.71;367.64;0.00;0.00;0.62;;;;;21.30;1.00;;;;;;2272581;61;1288;-85
2022/07/05 03:41:27;105826.00;0.35;183.63;0.00;0.00;0.62;;;;;21.50;1.00;;;;;;2272650;61;1122;-84
2022/07/05 03:43:54;104962.00;0.35;182.14;0.00;0.00;0.62;;;;;21.60;1.00;;;;;;2272568;61;1090;-85
2022/07/05 03:46:21;124929.00;0.42;216.58;0.00;0.00;0.62;;;;;21.60;1.00;;;;;;2272533;61;1052;-84
2022/07/05 03:48:48;109318.00;0.36;189.65;0.00;0.00;0.62;;;;;21.70;1.00;;;;;;2272546;61;1615;-85
2022/07/05 03:51:15;148876.00;0.50;257.87;0.00;0.00;0.62;;;;;21.90;1.00;;;;;;2272534;61;2003;-84
2022/07/05 03:53:42;268169.00;0.89;463.20;6133.00;0.02;11.25;;;;;22.00;1.00;;;;;;2272567;61;991;-85
2022/07/05 03:56:09;160121.00;0.53;277.25;0.00;0.00;0.62;;;;;22.10;1.00;;;;;;2272631;61;1093;-85
2022/07/05 03:58:37;212249.00;0.71;367.01;0.00;0.00;0.62;;;;;22.20;1.00;;;;;;2272540;61;1979;-85
2022/07/05 04:01:04;0.00;0.00;0.62;0.00;0.00;0.62;;;;;22.10;1.00;;;;;;2272593;61;1292;-85
2022/07/05 04:03:31;170307.00;0.57;294.80;0.00;0.00;0.62;;;;;21.80;1.00;;;;;;2272620;61;1009;-85
2022/07/05 04:05:58;83727.00;0.28;145.47;0.00;0.00;0.62;;;;;21.90;1.00;;;;;;2272576;61;1152;-85
2022/07/05 04:08:25;98969.00;0.33;171.79;0.00;0.00;0.62;;;;;22.00;1.00;;;;;;2272601;61;1067;-85
2022/07/05 04:10:51;127412.00;0.42;220.87;0.00;0.00;0.62;;;;;21.60;1.00;;;;;;2272532;61;1910;-85
2022/07/05 04:13:18;139954.00;0.47;242.49;0.00;0.00;0.62;;;;;21.10;1.00;;;;;;2272548;61;1032;-83
2022/07/05 04:15:46;351956.00;1.17;607.22;22023.00;0.07;38.77;;;;;20.80;1.00;;;;;;2272585;61;1021;-85
2022/07/05 04:18:13;256438.00;0.85;443.02;0.00;0.00;0.62;;;;;20.70;1.00;;;;;;2272555;61;1030;-85
2022/07/05 04:20:40;513103.00;1.71;884.39;125428.00;0.42;217.44;;;;;21.00;1.00;;;;;;2272510;61;1671;-85
2022/07/05 04:23:07;97053.00;0.32;168.48;0.00;0.00;0.62;;;;;21.50;1.00;;;;;;2272544;61;1133;-84
2022/07/05 04:25:34;255139.00;0.85;440.79;69412.00;0.23;120.74;;;;;21.80;1.00;;;;;;2272545;61;1084;-85
2022/07/05 04:28:01;181781.00;0.61;314.56;0.00;0.00;0.62;;;;;22.00;1.00;;;;;;2272472;61;1093;-84
2022/07/05 04:30:28;554428.00;1.85;955.59;69484.00;0.23;120.87;;;;;21.90;1.00;;;;;;2272404;61;2010;-86
2022/07/05 04:32:57;190598.00;0.64;329.74;0.00;0.00;0.62;;;;;21.70;1.00;;;;;;2272503;61;1136;-83
2022/07/05 04:35:24;157970.00;0.53;273.54;0.00;0.00;0.62;;;;;21.40;1.00;;;;;;2272361;61;1037;-85
2022/07/05 04:37:51;132015.00;0.44;228.80;0.00;0.00;0.62;;;;;21.30;1.00;;;;;;2272464;61;1132;-84
2022/07/05 04:40:18;283808.00;0.95;490.08;0.00;0.00;0.62;;;;;21.60;1.00;;;;;;2272469;61;1401;-85
2022/07/05 04:42:45;142455.00;0.47;246.80;0.00;0.00;0.62;;;;;21.50;1.00;;;;;;2272482;61;1042;-84
2022/07/05 04:45:12;128467.00;0.43;222.69;0.00;0.00;0.62;;;;;21.50;1.00;;;;;;2272454;61;1183;-85
2022/07/05 04:47:39;117903.00;0.39;204.47;0.00;0.00;0.62;;;;;21.60;1.00;;;;;;2272200;61;1145;-84
2022/07/05 04:50:08;5470.00;0.02;10.10;0.00;0.00;0.62;;;;;21.60;1.00;;;;;;2272387;61;1921;-85
2022/07/05 04:52:35;156647.00;0.52;271.26;0.00;0.00;0.62;;;;;21.40;1.00;;;;;;2272430;61;1039;-85
2022/07/05 04:55:02;121236.00;0.40;210.21;0.00;0.00;0.62;;;;;21.30;1.00;;;;;;2272397;61;1222;-87
2022/07/05 04:57:37;88187.00;0.29;153.18;0.00;0.00;0.62;;;;;21.30;1.00;;;;;;2272427;61;1105;-87
2022/07/05 05:00:05;140801.00;0.47;243.95;0.00;0.00;0.62;;;;;21.20;1.00;;;;;;2272367;61;1484;-88
2022/07/05 05:02:32;71965.00;0.24;125.16;0.00;0.00;0.62;;;;;21.20;1.00;;;;;;2272408;61;1138;-86
2022/07/05 05:04:59;124274.00;0.41;215.45;0.00;0.00;0.62;;;;;21.30;1.00;;;;;;2272402;61;973;-88
2022/07/05 05:07:27;45596.00;0.15;79.57;0.00;0.00;0.62;;;;;21.40;1.00;;;;;;2272285;61;966;-87
2022/07/05 05:09:54;166138.00;0.55;287.61;0.00;0.00;0.62;;;;;21.80;1.00;;;;;;2272229;61;1918;-87
2022/07/05 05:12:21;204717.00;0.68;354.04;0.00;0.00;0.62;;;;;22.20;1.00;;;;;;2272395;61;1091;-84
2022/07/05 05:14:48;98912.00;0.33;171.69;0.00;0.00;0.62;;;;;22.40;1.00;;;;;;2272445;61;1133;-85
2022/07/05 05:17:15;96837.00;0.32;168.11;0.00;0.00;0.62;;;;;22.50;1.00;;;;;;2272371;61;1143;-87
2022/07/05 05:19:42;194303.00;0.65;336.12;0.00;0.00;0.62;;;;;22.50;1.00;;;;;;2272271;61;1380;-86
2022/07/05 05:22:09;170181.00;0.57;294.58;0.00;0.00;0.62;;;;;22.30;1.00;;;;;;2272346;61;1381;-87
2022/07/05 05:24:37;69751.00;0.23;121.33;0.00;0.00;0.62;;;;;22.30;1.00;;;;;;2272316;61;1113;-88
2022/07/05 05:27:05;620795.00;2.07;1070.14;175356.00;0.58;303.49;;;;;22.00;1.00;;;;;;2272277;61;1067;-88
2022/07/05 05:29:32;81299.00;0.27;141.28;0.00;0.00;0.62;;;;;21.70;1.00;;;;;;2272229;61;1286;-87
2022/07/05 05:31:59;416469.00;1.39;718.12;70653.00;0.24;122.89;;;;;21.60;1.00;;;;;;2272266;61;1075;-86
2022/07/05 05:34:26;206505.00;0.69;357.12;0.00;0.00;0.62;;;;;21.30;1.00;;;;;;2272266;61;1137;-85
2022/07/05 05:36:53;99507.00;0.33;172.72;0.00;0.00;0.62;;;;;21.60;1.00;;;;;;2272272;61;1206;-86
2022/07/05 05:39:20;241051.00;0.80;416.56;0.00;0.00;0.62;;;;;22.10;1.00;;;;;;2272199;61;1288;-86
2022/07/05 05:41:48;62373.00;0.21;108.58;0.00;0.00;0.62;;;;;22.30;1.00;;;;;;2272226;61;1666;-87
2022/07/05 05:44:15;113827.00;0.38;197.43;0.00;0.00;0.62;;;;;22.30;1.00;;;;;;2272262;61;1019;-87
2022/07/05 05:46:42;124893.00;0.42;216.52;0.00;0.00;0.62;;;;;23.50;1.00;;;;;;2272263;61;927;-86
2022/07/05 05:49:08;91941.00;0.31;159.66;13456.00;0.04;23.94;;;;;25.10;1.00;;;;;;2272226;61;1422;-87
2022/07/05 05:51:35;96951.00;0.32;168.31;0.00;0.00;0.62;;;;;26.90;1.00;;;;;;2272246;61;2005;-86
2022/07/05 05:54:02;275405.00;0.92;475.64;7684.00;0.03;13.94;;;;;27.30;1.00;;;;;;2272305;61;1036;-88
2022/07/05 05:56:29;125260.00;0.42;217.15;0.00;0.00;0.62;;;;;28.30;1.00;;;;;;2272250;61;1068;-87
2022/07/05 05:58:57;0.00;0.00;0.62;0.00;0.00;0.62;;;;;29.80;1.00;;;;;;2272369;61;1402;-88
2022/07/05 06:01:24;191982.00;0.64;332.12;0.00;0.00;0.62;;;;;30.80;1.00;;;;;;2272955;61;1103;-88
2022/07/05 06:03:51;97353.00;0.32;169.00;0.00;0.00;0.62;;;;;31.70;1.00;;;;;;2272945;61;1439;-85
2022/07/05 06:06:18;71924.00;0.24;125.09;0.00;0.00;0.62;;;;;32.60;1.00;;;;;;2272872;61;942;-85
2022/07/05 06:08:45;74553.00;0.25;129.63;0.00;0.00;0.62;;;;;32.40;1.00;;;;;;2272879;61;1051;-87
2022/07/05 06:11:13;99408.00;0.33;172.55;0.00;0.00;0.62;;;;;32.00;1.00;;;;;;2272863;61;1992;-86
2022/07/05 06:13:40;31175.00;0.10;54.62;0.00;0.00;0.62;;;;;32.70;1.00;;;;;;2272895;61;1102;-87
2022/07/05 06:16:09;126209.00;0.42;218.79;0.00;0.00;0.62;;;;;32.40;1.00;;;;;;2272815;61;1023;-87
2022/07/05 06:18:35;0.00;0.00;0.62;0.00;0.00;0.62;;;;;31.90;1.00;;;;;;2272946;61;1031;-89
2022/07/05 06:21:02;21824.00;0.07;38.43;0.00;0.00;0.62;;;;;32.50;1.00;;;;;;2272891;61;1288;-87
2022/07/05 06:23:30;0.00;0.00;0.62;0.00;0.00;0.62;;;;;33.60;1.00;;;;;;2272868;61;1079;-87
2022/07/05 06:25:57;86463.00;0.29;150.20;0.00;0.00;0.62;;;;;33.30;1.00;;;;;;2272876;61;1093;-86
2022/07/05 06:28:23;83825.00;0.28;145.64;18846.00;0.06;33.27;;;;;33.70;1.00;;;;;;2272844;61;1088;-87
2022/07/05 06:30:52;30495.00;0.10;53.44;0.00;0.00;0.62;;;;;33.70;1.00;;;;;;2272765;61;1966;-88
2022/07/05 06:33:21;29053.00;0.10;50.94;0.00;0.00;0.62;;;;;34.50;1.00;;;;;;2272876;61;1060;-88
2022/07/05 06:35:48;0.00;0.00;0.62;0.00;0.00;0.62;;;;;34.20;1.00;;;;;;2272830;61;1154;-85
2022/07/05 06:38:14;74219.00;0.25;129.05;0.00;0.00;0.62;;;;;33.90;1.00;;;;;;2272842;61;1123;-85
2022/07/05 06:40:43;100575.00;0.34;174.56;29149.00;0.10;51.11;;;;;34.70;1.00;;;;;;2272776;61;1380;-87
2022/07/05 06:43:12;0.00;0.00;0.62;0.00;0.00;0.62;;;;;35.90;1.00;;;;;;2272779;61;1075;-86
2022/07/05 06:45:40;52771.00;0.18;91.98;0.00;0.00;0.62;;;;;36.20;1.00;;;;;;2272826;61;993;-86
2022/07/05 06:48:09;151892.00;0.51;263.07;19954.00;0.07;35.19;;;;;36.10;1.00;;;;;;2272808;61;937;-86
2022/07/05 06:50:39;206147.00;0.69;356.50;0.00;0.00;0.62;;;;;36.40;1.00;;;;;;2272800;61;1998;-87
2022/07/05 06:53:07;4294.00;0.01;8.06;0.00;0.00;0.62;;;;;37.10;1.00;;;;;;2272822;61;1084;-86
2022/07/05 06:55:34;133250.00;0.44;230.93;0.00;0.00;0.62;;;;;37.40;1.00;;;;;;2272802;61;1157;-87
2022/07/05 06:58:03;10715.00;0.04;19.19;0.00;0.00;0.62;;;;;37.20;1.00;;;;;;2272757;61;1715;-87
2022/07/05 07:00:31;103250.00;0.34;179.18;38730.00;0.13;67.69;;;;;36.80;1.00;;;;;;2272746;61;1371;-88
2022/07/05 07:02:58;0.00;0.00;0.62;0.00;0.00;0.62;;;;;37.00;1.00;;;;;;2272731;61;887;-90
2022/07/05 07:05:25;70304.00;0.23;122.29;0.00;0.00;0.62;;;;;36.90;1.00;;;;;;2272703;61;1150;-87
2022/07/05 07:10:38;0.00;0.00;0.62;0.00;0.00;0.62;;;;;36.60;1.00;;;;;;2272545;61;1990;-86
2022/07/05 07:13:05;0.00;0.00;0.62;0.00;0.00;0.62;;;;;37.10;1.00;;;;;;2272757;61;1177;-87
2022/07/05 07:15:33;82041.00;0.27;142.56;0.00;0.00;0.62;;;;;37.60;1.00;;;;;;2272712;61;1075;-86
2022/07/05 07:18:00;0.00;0.00;0.62;0.00;0.00;0.62;;;;;38.00;1.00;;;;;;2272778;61;1076;-87
2022/07/05 07:20:28;0.00;0.00;0.62;0.00;0.00;0.62;;;;;38.50;1.00;;;;;;2272691;61;1408;-86
2022/07/05 07:22:56;0.00;0.00;0.62;0.00;0.00;0.62;;;;;37.70;1.00;;;;;;2272737;61;1123;-87
2022/07/05 07:25:23;0.00;0.00;0.62;0.00;0.00;0.62;;;;;38.00;1.00;;;;;;2272690;61;1067;-87
2022/07/05 07:27:52;0.00;0.00;0.62;0.00;0.00;0.62;;;;;37.70;1.00;;;;;;2268949;61;1043;-85
2022/07/05 07:30:22;155133.00;0.52;268.65;23947.00;0.08;42.10;;;;;37.70;1.00;;;;;;2267822;61;1932;-83
2022/07/05 07:32:49;0.00;0.00;0.62;0.00;0.00;0.62;;;;;37.60;1.00;;;;;;2269614;61;1182;-83
2022/07/05 07:35:16;286844.00;0.96;495.30;154290.00;0.51;267.20;;;;;38.20;1.00;;;;;;2268500;61;1112;-83
2022/07/05 07:37:43;136011.00;0.45;235.69;22985.00;0.08;40.44;;;;;38.40;1.00;;;;;;2268037;61;1036;-85
2022/07/05 07:40:12;0.00;0.00;0.62;0.00;0.00;0.62;;;;;39.00;1.00;;;;;;2268242;61;1266;-84
2022/07/05 07:42:38;0.00;0.00;0.62;0.00;0.00;0.62;;;;;39.30;1.00;;;;;;2268255;61;1146;-84
2022/07/05 07:45:07;140582.00;0.47;243.57;0.00;0.00;0.62;;;;;38.10;1.00;;;;;;2268846;61;1100;-84
2022/07/05 07:47:35;0.00;0.00;0.62;0.00;0.00;0.62;;;;;37.80;1.00;;;;;;2267825;61;1143;-84
2022/07/05 07:50:02;45888.00;0.15;80.07;0.00;0.00;0.62;;;;;37.30;1.00;;;;;;2268931;61;1383;-85
2022/07/05 07:52:30;0.00;0.00;0.62;0.00;0.00;0.62;;;;;37.80;1.00;;;;;;2268200;61;1948;-84
2022/07/05 07:54:57;0.00;0.00;0.62;0.00;0.00;0.62;;;;;38.30;1.00;;;;;;2267891;61;1182;-84
2022/07/05 07:57:25;0.00;0.00;0.62;0.00;0.00;0.62;;;;;38.30;1.00;;;;;;2268309;61;1131;-84
2022/07/05 07:59:52;0.00;0.00;0.62;0.00;0.00;0.62;;;;;38.20;1.00;;;;;;2269441;61;1387;-83
2022/07/05 08:02:21;12655.00;0.04;22.55;0.00;0.00;0.62;;;;;38.40;1.00;;;;;;2268112;61;1193;-83
2022/07/05 08:04:48;0.00;0.00;0.62;0.00;0.00;0.62;;;;;37.50;1.00;;;;;;2267919;61;1074;-84
2022/07/05 08:07:14;7200.00;0.02;13.10;0.00;0.00;0.62;;;;;38.30;1.00;;;;;;2269214;61;1266;-83
2022/07/05 08:09:41;0.00;0.00;0.62;0.00;0.00;0.62;;;;;38.30;1.00;;;;;;2268838;61;1382;-84
2022/07/05 08:12:09;134733.00;0.45;233.49;33551.00;0.11;58.73;;;;;38.20;1.00;;;;;;2268167;61;2018;-85
2022/07/05 08:14:37;2487.00;0.01;4.93;0.00;0.00;0.62;;;;;37.70;1.00;;;;;;2268191;61;1127;-84
2022/07/05 08:17:07;0.00;0.00;0.62;0.00;0.00;0.62;;;;;37.10;1.00;;;;;;2268664;61;1175;-85
2022/07/05 08:22:19;0.00;0.00;0.62;0.00;0.00;0.62;;;;;37.20;1.00;;;;;;2268695;61;700;-83
2022/07/05 08:24:46;184611.00;0.62;319.43;37244.00;0.12;65.12;;;;;37.00;1.00;;;;;;2271283;61;1203;-83
2022/07/05 08:27:13;106956.00;0.36;185.58;8225.00;0.03;14.87;;;;;36.70;1.00;;;;;;2272030;61;1091;-83
2022/07/05 08:29:41;0.00;0.00;0.62;0.00;0.00;0.62;;;;;37.60;1.00;;;;;;2271991;61;1315;-82
2022/07/05 08:32:09;0.00;0.00;0.62;0.00;0.00;0.62;;;;;38.00;1.00;;;;;;2272436;61;2010;-84
2022/07/05 08:34:37;0.00;0.00;0.62;0.00;0.00;0.62;;;;;37.70;1.00;;;;;;2271819;61;1035;-83
2022/07/05 08:37:04;0.00;0.00;0.62;0.00;0.00;0.62;;;;;37.60;1.00;;;;;;2269944;61;1178;-84
2022/07/05 08:39:31;26912.00;0.09;47.24;0.00;0.00;0.62;;;;;37.70;1.00;;;;;;2270147;61;1332;-84
2022/07/05 08:42:00;0.00;0.00;0.62;0.00;0.00;0.62;;;;;37.40;1.00;;;;;;2269858;61;1222;-84
2022/07/05 08:44:29;39774.00;0.13;69.50;0.00;0.00;0.62;;;;;37.80;1.00;;;;;;2269406;61;1168;-82
2022/07/05 08:46:59;0.00;0.00;0.62;0.00;0.00;0.62;;;;;37.60;1.00;;;;;;2269600;61;1073;-85
2022/07/05 08:49:27;48333.00;0.16;84.30;0.00;0.00;0.62;;;;;37.70;1.00;;;;;;2268303;61;1268;-83
2022/07/05 08:51:56;448998.00;1.50;774.06;92458.00;0.31;160.55;;;;;37.00;1.00;;;;;;2267844;61;2004;-83
2022/07/05 08:54:24;0.00;0.00;0.62;0.00;0.00;0.62;;;;;36.40;1.00;;;;;;2268331;61;1110;-84
2022/07/05 08:56:52;0.00;0.00;0.62;0.00;0.00;0.62;;;;;36.70;1.00;;;;;;2269321;61;1087;-84
2022/07/05 08:59:19;0.00;0.00;0.62;0.00;0.00;0.62;;;;;36.80;1.00;;;;;;2269816;61;1379;-86
2022/07/05 09:01:47;0.00;0.00;0.62;0.00;0.00;0.62;;;;;36.50;1.00;;;;;;2268711;61;1104;-85
2022/07/05 09:04:18;0.00;0.00;0.62;0.00;0.00;0.62;;;;;35.70;1.00;;;;;;2268816;61;1142;-85
2022/07/05 09:06:49;96831.00;0.32;168.10;11156.00;0.04;19.95;;;;;35.60;1.00;;;;;;2268517;61;2121;-86
2022/07/05 09:09:18;42017.00;0.14;73.38;0.00;0.00;0.62;;;;;35.40;1.00;;;;;;2269402;61;1470;-85
2022/07/05 09:11:47;122116.00;0.41;211.73;36401.00;0.12;63.66;;;;;35.60;1.00;;;;;;2269080;61;1994;-84
2022/07/05 09:14:21;0.00;0.00;0.62;0.00;0.00;0.62;;;;;35.60;1.00;;;;;;2268242;61;1110;-85
2022/07/05 09:16:48;0.00;0.00;0.62;0.00;0.00;0.62;;;;;35.50;1.00;;;;;;2269550;61;1218;-83
2022/07/05 09:19:16;165856.00;0.55;287.13;56341.00;0.19;98.15;;;;;35.10;1.00;;;;;;2268673;61;1329;-84
2022/07/05 09:21:44;0.00;0.00;0.62;0.00;0.00;0.62;;;;;35.40;1.00;;;;;;2270057;61;1487;-84
2022/07/05 09:24:12;48280.00;0.16;84.21;0.00;0.00;0.62;;;;;35.30;1.00;;;;;;2269635;61;1087;-84
2022/07/05 09:26:41;60337.00;0.20;105.06;0.00;0.00;0.62;;;;;35.00;1.00;;;;;;2269832;61;1551;-86
2022/07/05 09:29:10;4583.00;0.02;8.56;0.00;0.00;0.62;;;;;35.30;1.00;;;;;;2270755;61;1363;-86
2022/07/05 09:31:38;46068.00;0.15;80.39;0.00;0.00;0.62;;;;;34.90;1.00;;;;;;2272319;61;1924;-84
2022/07/05 09:34:06;0.00;0.00;0.62;0.00;0.00;0.62;;;;;33.70;1.00;;;;;;2272459;61;1519;-86
2022/07/05 09:36:51;0.00;0.00;0.62;0.00;0.00;0.62;;;;;33.60;1.00;;;;;;2272936;61;1055;-85
2022/07/05 09:39:19;98427.00;0.33;170.86;27618.00;0.09;48.46;;;;;33.30;1.00;;;;;;2272022;61;1399;-85
2022/07/05 09:41:46;0.00;0.00;0.62;0.00;0.00;0.62;;;;;33.10;1.00;;;;;;2273096;61;1159;-85
2022/07/05 09:44:25;6615.00;0.02;12.08;0.00;0.00;0.62;;;;;33.00;1.00;;;;;;2273085;61;1087;-84
2022/07/05 09:47:09;315396.00;1.05;544.38;113087.00;0.38;196.16;;;;;33.50;1.00;;;;;;2273094;61;1478;-87
2022/07/05 09:49:37;0.00;0.00;0.62;0.00;0.00;0.62;;;;;33.70;1.00;;;;;;2272948;61;1806;-83
2022/07/05 09:52:05;646001.00;2.15;1113.72;70099.00;0.23;121.93;;;;;33.60;1.00;;;;;;2272998;61;2000;-85
2022/07/05 09:54:32;289429.00;0.96;499.75;0.00;0.00;0.62;;;;;33.10;1.00;;;;;;2272973;61;1083;-85
2022/07/05 09:56:59;120238.00;0.40;208.49;0.00;0.00;0.62;;;;;32.60;1.00;;;;;;2272613;61;1078;-85
2022/07/05 09:59:27;182420.00;0.61;315.66;0.00;0.00;0.62;;;;;32.20;1.00;;;;;;2269540;61;1329;-82
2022/07/05 10:01:54;395304.00;1.32;681.73;8505.00;0.03;15.36;;;;;32.20;1.00;;;;;;2272925;61;1608;-84
2022/07/05 10:04:21;420984.00;1.40;725.88;29071.00;0.10;50.98;;;;;32.10;1.00;;;;;;2272999;61;1539;-85
2022/07/05 10:06:49;247638.00;0.83;427.89;22297.00;0.07;39.25;;;;;32.10;1.00;;;;;;2272800;61;1151;-84
2022/07/05 10:09:19;589516.00;1.97;1016.12;29594.00;0.10;51.88;;;;;32.20;1.00;;;;;;2271276;61;1626;-84
2022/07/05 10:11:47;90343.00;0.30;156.90;0.00;0.00;0.62;;;;;32.40;1.00;;;;;;2269426;61;1943;-83
2022/07/05 10:14:20;70792.00;0.24;123.13;0.00;0.00;0.62;;;;;32.20;1.00;;;;;;2268173;61;2239;-84
2022/07/05 10:16:59;162027.00;0.54;280.53;0.00;0.00;0.62;;;;;31.60;1.00;;;;;;2268938;61;1133;-85